createdAt,value
2018-11-11T00:00:56.845Z,7.07
2018-11-11T00:03:24.045Z,7.83
2018-11-11T00:05:51.341Z,6.67
2018-11-11T00:08:18.639Z,8.73
2018-11-11T00:10:45.912Z,8.33
2018-11-11T00:13:13.188Z,8.37
2018-11-11T00:15:40.420Z,8.40
2018-11-11T00:18:07.702Z,9.27
2018-11-11T00:20:34.992Z,8.80
2018-11-11T00:23:02.272Z,9.93
2018-11-11T00:25:29.585Z,7.83
2018-11-11T00:27:56.783Z,8.80
2018-11-11T00:30:24.010Z,7.47
2018-11-11T00:32:51.231Z,7.80
2018-11-11T00:35:18.505Z,11.00
2018-11-11T00:37:45.757Z,9.70
2018-11-11T00:40:14.817Z,9.70
2018-11-11T00:42:42.325Z,7.53
2018-11-11T00:45:10.237Z,9.10
2018-11-11T00:47:37.485Z,8.07
2018-11-11T00:50:05.950Z,9.43
2018-11-11T00:52:33.172Z,7.93
2018-11-11T00:55:00.539Z,9.77
2018-11-11T00:57:27.737Z,6.77
2018-11-11T00:59:54.984Z,8.90
2018-11-11T01:02:22.241Z,8.20
2018-11-11T01:04:49.511Z,7.27
2018-11-11T01:07:16.796Z,11.43
2018-11-11T01:09:44.029Z,8.20
2018-11-11T01:12:11.284Z,7.77
2018-11-11T01:14:38.861Z,6.00
2018-11-11T01:17:06.556Z,7.67
2018-11-11T01:19:33.765Z,6.87
2018-11-11T01:24:51.056Z,6.60
2018-11-11T01:27:18.356Z,6.53
2018-11-11T01:29:45.560Z,6.97
2018-11-11T01:32:12.855Z,7.70
2018-11-11T01:34:40.047Z,7.37
2018-11-11T01:37:07.325Z,9.30
2018-11-11T01:39:34.557Z,7.30
2018-11-11T01:42:01.897Z,10.40
2018-11-11T01:44:29.189Z,8.80
2018-11-11T01:46:56.487Z,8.73
2018-11-11T01:49:23.732Z,8.70
2018-11-11T01:51:51.508Z,8.33
2018-11-11T01:54:18.765Z,9.03
2018-11-11T01:56:46.932Z,9.70
2018-11-11T01:59:14.267Z,10.53
2018-11-11T02:01:41.514Z,9.50
2018-11-11T02:04:08.726Z,8.03
2018-11-11T02:06:35.967Z,10.37
2018-11-11T02:09:05.194Z,6.83
2018-11-11T02:11:32.394Z,6.23
2018-11-11T02:13:59.622Z,6.97
2018-11-11T02:16:26.897Z,8.33
2018-11-11T02:18:54.176Z,6.87
2018-11-11T02:21:21.675Z,6.63
2018-11-11T02:23:48.934Z,9.03
2018-11-11T02:26:16.214Z,8.23
2018-11-11T02:28:43.493Z,6.60
2018-11-11T02:31:10.779Z,6.50
2018-11-11T02:33:38.552Z,17.07
2018-11-11T02:36:05.809Z,7.37
2018-11-11T02:38:33.106Z,6.97
2018-11-11T02:41:00.345Z,5.97
2018-11-11T02:43:27.556Z,5.90
2018-11-11T02:45:54.765Z,8.40
2018-11-11T02:48:22.066Z,6.53
2018-11-11T02:50:49.314Z,6.30
2018-11-11T02:53:16.557Z,7.37
2018-11-11T02:55:43.865Z,7.43
2018-11-11T02:58:11.148Z,9.13
2018-11-11T03:00:38.407Z,7.07
2018-11-11T03:03:05.648Z,6.50
2018-11-11T03:05:32.882Z,6.43
2018-11-11T03:08:00.178Z,6.30
2018-11-11T03:10:27.424Z,4.43
2018-11-11T03:12:54.677Z,4.50
2018-11-11T03:15:21.886Z,3.63
2018-11-11T03:17:49.494Z,3.00
2018-11-11T03:20:17.047Z,4.37
2018-11-11T03:22:44.402Z,6.00
2018-11-11T03:25:13.002Z,4.17
2018-11-11T03:27:40.657Z,5.37
2018-11-11T03:30:09.555Z,5.33
2018-11-11T03:32:37.143Z,5.77
2018-11-11T03:35:06.390Z,6.43
2018-11-11T03:37:33.601Z,6.70
2018-11-11T03:40:00.811Z,6.10
2018-11-11T03:42:28.123Z,6.87
2018-11-11T03:44:55.360Z,6.87
2018-11-11T03:47:22.592Z,7.30
2018-11-11T03:49:49.822Z,6.03
2018-11-11T03:52:17.121Z,7.50
2018-11-11T03:54:44.378Z,8.67
2018-11-11T03:57:11.667Z,7.10
2018-11-11T03:59:39.024Z,8.73
2018-11-11T04:02:06.312Z,9.07
2018-11-11T04:04:33.913Z,8.93
2018-11-11T04:07:01.163Z,9.50
2018-11-11T04:09:28.439Z,8.90
2018-11-11T04:11:55.645Z,9.17
2018-11-11T04:14:22.874Z,8.40
2018-11-11T04:16:50.089Z,8.87
2018-11-11T04:19:17.343Z,9.77
2018-11-11T04:21:46.223Z,8.93
2018-11-11T04:24:15.096Z,9.37
2018-11-11T04:26:42.778Z,8.43
2018-11-11T04:29:10.016Z,9.10
2018-11-11T04:31:37.231Z,8.07
2018-11-11T04:34:04.694Z,8.03
2018-11-11T04:36:31.918Z,11.63
2018-11-11T04:38:59.252Z,7.97
2018-11-11T04:41:26.501Z,7.87
2018-11-11T04:43:53.786Z,7.77
2018-11-11T04:46:21.176Z,7.43
2018-11-11T04:48:48.453Z,9.27
2018-11-11T04:51:15.656Z,8.20
2018-11-11T04:53:42.904Z,9.17
2018-11-11T04:56:10.145Z,7.73
2018-11-11T04:58:37.412Z,8.73
2018-11-11T05:01:04.721Z,8.20
2018-11-11T05:03:32.197Z,9.17
2018-11-11T05:05:59.474Z,8.70
2018-11-11T05:08:26.806Z,9.60
2018-11-11T05:10:54.062Z,8.70
2018-11-11T05:13:21.357Z,10.20
2018-11-11T05:15:48.616Z,7.73
2018-11-11T05:18:15.918Z,8.17
2018-11-11T05:20:43.870Z,7.63
2018-11-11T05:23:11.106Z,9.37
2018-11-11T05:25:38.393Z,7.83
2018-11-11T05:28:05.710Z,7.73
2018-11-11T05:30:32.971Z,10.27
2018-11-11T05:33:00.210Z,8.67
2018-11-11T05:35:27.418Z,8.27
2018-11-11T05:37:54.623Z,9.03
2018-11-11T05:40:21.908Z,9.77
2018-11-11T05:42:49.127Z,8.80
2018-11-11T05:45:16.440Z,8.13
2018-11-11T05:47:44.680Z,8.93
2018-11-11T05:50:13.243Z,7.50
2018-11-11T05:52:40.838Z,9.90
2018-11-11T05:55:08.435Z,8.77
2018-11-11T05:57:35.675Z,8.90
2018-11-11T06:00:03.069Z,8.90
2018-11-11T06:02:30.391Z,10.20
2018-11-11T06:04:57.782Z,7.97
2018-11-11T06:07:25.057Z,10.77
2018-11-11T06:09:52.620Z,8.27
2018-11-11T06:12:20.117Z,10.27
2018-11-11T06:14:48.226Z,10.40
2018-11-11T06:17:15.702Z,9.27
2018-11-11T06:19:43.407Z,9.37
2018-11-11T06:22:12.132Z,10.17
2018-11-11T06:24:39.934Z,10.57
2018-11-11T06:27:07.962Z,11.43
2018-11-11T06:29:35.799Z,9.23
2018-11-11T06:32:03.492Z,10.03
2018-11-11T06:34:31.174Z,10.30
2018-11-11T06:36:59.372Z,10.43
2018-11-11T06:39:26.765Z,11.07
2018-11-11T06:41:54.156Z,10.10
2018-11-11T06:44:21.764Z,13.83
2018-11-11T06:46:49.174Z,9.17
2018-11-11T06:49:16.457Z,9.70
2018-11-11T06:51:44.072Z,9.50
2018-11-11T06:54:11.419Z,11.03
2018-11-11T06:56:38.820Z,9.83
2018-11-11T06:59:06.747Z,8.83
2018-11-11T07:01:34.405Z,9.50
2018-11-11T07:04:02.639Z,8.43
2018-11-11T07:06:30.525Z,11.30
2018-11-11T07:08:58.092Z,10.97
2018-11-11T07:11:26.146Z,10.77
2018-11-11T07:13:53.560Z,10.93
2018-11-11T07:16:20.953Z,10.07
2018-11-11T07:18:48.324Z,13.43
2018-11-11T07:21:16.419Z,12.50
2018-11-11T07:23:44.179Z,10.40
2018-11-11T07:26:11.806Z,12.57
2018-11-11T07:28:39.779Z,11.17
2018-11-11T07:31:08.510Z,11.83
2018-11-11T07:33:36.961Z,12.07
2018-11-11T07:36:07.143Z,13.53
2018-11-11T07:38:35.249Z,12.20
2018-11-11T07:41:04.102Z,10.77
2018-11-11T07:43:32.179Z,12.37
2018-11-11T07:45:59.885Z,11.73
2018-11-11T07:48:27.194Z,12.50
2018-11-11T07:50:58.417Z,11.70
2018-11-11T07:53:26.197Z,11.77
2018-11-11T07:55:54.442Z,11.70
2018-11-11T07:58:23.006Z,11.27
2018-11-11T08:00:50.680Z,12.97
2018-11-11T08:03:18.521Z,11.17
2018-11-11T08:05:46.209Z,12.47
2018-11-11T08:08:15.053Z,13.90
2018-11-11T08:10:54.125Z,11.03
2018-11-11T08:13:22.720Z,11.10
2018-11-11T08:15:50.445Z,11.60
2018-11-11T08:18:18.079Z,11.13
2018-11-11T08:20:45.981Z,9.93
2018-11-11T08:23:15.120Z,10.43
2018-11-11T08:25:43.776Z,11.97
2018-11-11T08:28:11.930Z,10.83
2018-11-11T08:30:39.783Z,11.30
2018-11-11T08:33:09.432Z,11.37
2018-11-11T08:35:37.029Z,13.33
2018-11-11T08:38:05.846Z,11.33
2018-11-11T08:40:33.630Z,10.90
2018-11-11T08:43:03.569Z,11.07
2018-11-11T08:45:30.965Z,12.03
2018-11-11T08:48:00.584Z,12.90
2018-11-11T08:50:28.509Z,9.20
2018-11-11T08:52:56.371Z,10.17
2018-11-11T08:55:25.873Z,9.80
2018-11-11T08:57:55.191Z,10.43
2018-11-11T09:00:23.931Z,13.70
2018-11-11T09:02:51.600Z,11.30
2018-11-11T09:05:19.558Z,14.63
2018-11-11T09:07:47.902Z,11.23
2018-11-11T09:10:15.441Z,13.73
2018-11-11T09:12:43.284Z,11.93
2018-11-11T09:15:14.148Z,13.37
2018-11-11T09:17:45.687Z,13.10
2018-11-11T09:20:15.341Z,11.77
2018-11-11T09:22:42.856Z,12.03
2018-11-11T09:25:10.790Z,12.73
2018-11-11T09:27:39.325Z,13.30
2018-11-11T09:30:08.947Z,14.30
2018-11-11T09:32:36.390Z,12.57
2018-11-11T09:35:05.837Z,16.60
2018-11-11T09:37:33.294Z,12.50
2018-11-11T09:40:00.924Z,11.73
2018-11-11T09:42:28.358Z,11.43
2018-11-11T09:44:55.799Z,11.03
2018-11-11T09:47:23.390Z,9.30
2018-11-11T09:49:50.729Z,8.60
2018-11-11T09:52:18.286Z,7.43
2018-11-11T09:54:45.730Z,8.87
2018-11-11T09:57:13.161Z,6.53
2018-11-11T09:59:40.611Z,8.63
2018-11-11T10:02:08.117Z,7.77
2018-11-11T10:04:39.566Z,8.60
2018-11-11T10:07:17.672Z,9.27
2018-11-11T10:10:25.165Z,9.23
2018-11-11T10:13:00.461Z,6.73
2018-11-11T10:15:32.647Z,7.87
2018-11-11T10:18:17.259Z,6.67
2018-11-11T10:21:04.146Z,7.83
2018-11-11T10:23:38.175Z,7.10
2018-11-11T10:26:15.626Z,5.57
2018-11-11T10:30:49.561Z,5.87
2018-11-11T10:33:29.928Z,4.53
2018-11-11T10:36:03.662Z,6.00
2018-11-11T10:38:35.842Z,3.37
2018-11-11T10:41:05.688Z,3.73
2018-11-11T10:44:10.494Z,2.10
2018-11-11T10:47:09.400Z,2.17
2018-11-11T10:49:51.844Z,2.97
2018-11-11T10:52:19.480Z,2.97
2018-11-11T10:54:48.707Z,3.10
2018-11-11T10:57:17.187Z,2.40
2018-11-11T10:59:44.906Z,2.60
2018-11-11T11:02:18.283Z,2.00
2018-11-11T11:04:51.697Z,4.93
2018-11-11T11:07:19.840Z,3.27
2018-11-11T11:09:47.912Z,2.67
2018-11-11T11:12:16.233Z,4.10
2018-11-11T11:14:43.593Z,2.27
2018-11-11T11:17:11.392Z,2.60
2018-11-11T11:19:38.857Z,2.33
2018-11-11T11:22:07.447Z,1.90
2018-11-11T11:24:35.046Z,1.30
2018-11-11T11:27:03.383Z,2.47
2018-11-11T11:29:32.567Z,1.03
2018-11-11T11:32:00.945Z,1.43
2018-11-11T11:34:28.258Z,1.87
2018-11-11T11:36:56.336Z,1.90
2018-11-11T11:39:23.790Z,1.67
2018-11-11T11:41:51.589Z,0.80
2018-11-11T11:44:19.571Z,3.00
2018-11-11T11:46:46.881Z,1.63
2018-11-11T11:49:14.254Z,1.47
2018-11-11T11:51:41.715Z,0.90
2018-11-11T11:54:09.276Z,0.80
2018-11-11T11:56:37.311Z,0.93
2018-11-11T11:59:05.648Z,0.70
2018-11-11T12:01:33.242Z,0.70
2018-11-11T12:04:02.068Z,1.23
2018-11-11T12:06:30.122Z,1.40
2018-11-11T12:08:57.507Z,1.23
2018-11-11T12:11:24.872Z,2.07
2018-11-11T12:13:53.829Z,1.90
2018-11-11T12:16:22.075Z,2.30
2018-11-11T12:18:50.099Z,2.13
2018-11-11T12:21:18.207Z,3.40
2018-11-11T12:23:46.536Z,4.10
2018-11-11T12:26:13.839Z,2.43
2018-11-11T12:28:46.755Z,4.13
2018-11-11T12:31:14.341Z,2.67
2018-11-11T12:33:46.833Z,3.73
2018-11-11T12:36:14.839Z,2.97
2018-11-11T12:38:43.172Z,5.67
2018-11-11T12:41:10.600Z,3.23
2018-11-11T12:43:38.120Z,7.67
2018-11-11T12:46:05.474Z,4.20
2018-11-11T12:48:32.934Z,3.10
2018-11-11T12:51:00.254Z,3.10
2018-11-11T12:53:28.314Z,3.30
2018-11-11T12:55:57.053Z,4.07
2018-11-11T12:58:24.432Z,4.03
2018-11-11T13:00:52.025Z,2.80
2018-11-11T13:03:19.429Z,5.20
2018-11-11T13:05:46.825Z,5.07
2018-11-11T13:08:14.161Z,6.03
2018-11-11T13:10:41.540Z,3.63
2018-11-11T13:13:22.850Z,4.80
2018-11-11T13:16:04.440Z,5.57
2018-11-11T13:18:45.083Z,5.67
2018-11-11T13:21:13.218Z,4.00
2018-11-11T13:23:41.344Z,4.83
2018-11-11T13:26:09.935Z,6.47
2018-11-11T13:28:37.863Z,4.80
2018-11-11T13:31:06.064Z,6.93
2018-11-11T13:33:33.546Z,3.17
2018-11-11T13:36:02.458Z,4.93
2018-11-11T13:38:29.942Z,5.33
2018-11-11T13:40:57.286Z,4.90
2018-11-11T13:43:24.737Z,4.33
2018-11-11T13:45:52.053Z,3.97
2018-11-11T13:48:19.375Z,5.47
2018-11-11T13:50:46.786Z,5.20
2018-11-11T13:53:14.845Z,4.13
2018-11-11T13:55:43.057Z,3.80
2018-11-11T13:58:10.622Z,6.30
2018-11-11T14:00:37.972Z,2.20
2018-11-11T14:03:05.480Z,9.57
2018-11-11T14:05:34.140Z,5.17
2018-11-11T14:08:01.554Z,9.33
2018-11-11T14:10:29.434Z,4.93
2018-11-11T14:12:56.906Z,4.37
2018-11-11T14:15:25.495Z,3.40
2018-11-11T14:17:53.908Z,3.33
2018-11-11T14:20:22.854Z,3.43
2018-11-11T14:22:51.182Z,3.93
2018-11-11T14:25:22.596Z,7.67
2018-11-11T14:27:54.135Z,5.87
2018-11-11T14:30:27.009Z,5.00
2018-11-11T14:33:01.101Z,5.07
2018-11-11T14:35:28.806Z,3.73
2018-11-11T14:37:56.917Z,2.63
2018-11-11T14:40:27.244Z,3.60
2018-11-11T14:42:54.717Z,4.23
2018-11-11T14:45:22.712Z,4.30
2018-11-11T14:47:53.076Z,4.27
2018-11-11T14:50:26.726Z,4.10
2018-11-11T14:53:00.156Z,5.73
2018-11-11T14:55:29.057Z,3.90
2018-11-11T14:57:57.329Z,6.07
2018-11-11T15:00:27.543Z,4.33
2018-11-11T15:03:05.126Z,3.27
2018-11-11T15:05:37.758Z,5.07
2018-11-11T15:08:06.350Z,2.93
2018-11-11T15:10:37.186Z,4.63
2018-11-11T15:13:07.560Z,2.53
2018-11-11T15:15:37.524Z,4.80
2018-11-11T15:18:06.841Z,6.63
2018-11-11T15:20:36.616Z,3.90
2018-11-11T15:23:07.409Z,4.27
2018-11-11T15:25:36.217Z,4.23
2018-11-11T15:28:13.148Z,2.47
2018-11-11T15:30:48.276Z,3.97
2018-11-11T15:33:18.779Z,3.90
2018-11-11T15:35:46.559Z,3.90
2018-11-11T15:38:15.502Z,4.20
2018-11-11T15:40:44.650Z,5.97
2018-11-11T15:43:12.382Z,6.27
2018-11-11T15:45:48.825Z,4.43
2018-11-11T15:48:17.635Z,3.13
2018-11-11T15:50:45.441Z,3.43
2018-11-11T15:53:13.041Z,3.87
2018-11-11T15:55:40.653Z,3.43
2018-11-11T15:58:08.434Z,4.03
2018-11-11T16:00:37.434Z,3.23
2018-11-11T16:03:05.048Z,6.17
2018-11-11T16:05:32.245Z,5.47
2018-11-11T16:08:00.931Z,3.67
2018-11-11T16:10:29.684Z,4.73
2018-11-11T16:12:57.182Z,4.37
2018-11-11T16:15:26.301Z,4.03
2018-11-11T16:17:55.214Z,4.80
2018-11-11T16:20:23.922Z,3.90
2018-11-11T16:22:52.451Z,4.90
2018-11-11T16:25:19.892Z,4.93
2018-11-11T16:27:47.850Z,2.97
2018-11-11T16:30:17.873Z,5.50
2018-11-11T16:32:45.860Z,5.23
2018-11-11T16:35:14.345Z,4.10
2018-11-11T16:37:42.095Z,4.10
2018-11-11T16:40:12.026Z,8.50
2018-11-11T16:42:39.448Z,5.27
2018-11-11T16:45:07.888Z,7.13
2018-11-11T16:47:35.510Z,3.07
2018-11-11T16:50:03.172Z,3.77
2018-11-11T16:52:30.401Z,5.30
2018-11-11T16:54:57.608Z,3.73
2018-11-11T16:57:24.878Z,3.53
2018-11-11T16:59:52.676Z,4.63
2018-11-11T17:02:20.277Z,6.23
2018-11-11T17:04:48.330Z,6.73
2018-11-11T17:07:16.027Z,3.77
2018-11-11T17:09:43.575Z,4.53
2018-11-11T17:12:10.957Z,6.17
2018-11-11T17:14:39.662Z,5.13
2018-11-11T17:17:07.593Z,4.03
2018-11-11T17:19:35.053Z,4.70
2018-11-11T17:22:02.342Z,7.77
2018-11-11T17:24:29.610Z,5.93
2018-11-11T17:26:57.125Z,6.17
2018-11-11T17:29:24.381Z,5.90
2018-11-11T17:31:52.936Z,4.33
2018-11-11T17:34:20.329Z,6.27
2018-11-11T17:36:48.759Z,8.63
2018-11-11T17:39:16.424Z,4.97
2018-11-11T17:41:44.533Z,7.40
2018-11-11T17:44:11.942Z,6.20
2018-11-11T17:46:39.382Z,6.73
2018-11-11T17:49:06.820Z,6.73
2018-11-11T17:51:34.396Z,4.30
2018-11-11T17:54:01.657Z,6.70
2018-11-11T17:56:28.903Z,4.53
2018-11-11T17:58:56.225Z,9.24
2018-11-11T18:01:25.157Z,4.30
2018-11-11T18:03:52.569Z,8.60
2018-11-11T18:06:19.804Z,4.60
2018-11-11T18:08:47.066Z,5.93
2018-11-11T18:11:14.341Z,5.90
2018-11-11T18:13:41.699Z,3.80
2018-11-11T18:16:09.216Z,5.43
2018-11-11T18:18:36.465Z,6.63
2018-11-11T18:21:03.689Z,4.40
2018-11-11T18:23:30.934Z,5.47
2018-11-11T18:25:58.177Z,5.23
2018-11-11T18:28:25.415Z,4.03
2018-11-11T18:30:52.732Z,5.80
2018-11-11T18:33:20.728Z,8.70
2018-11-11T18:35:48.059Z,5.87
2018-11-11T18:38:16.543Z,7.47
2018-11-11T18:40:43.808Z,4.47
2018-11-11T18:43:11.096Z,4.60
2018-11-11T18:45:38.457Z,6.07
2018-11-11T18:48:06.081Z,6.07
2018-11-11T18:50:33.771Z,6.50
2018-11-11T18:53:01.522Z,6.50
2018-11-11T18:55:28.874Z,7.17
2018-11-11T18:57:57.395Z,6.20
2018-11-11T19:00:26.243Z,6.37
2018-11-11T19:02:54.434Z,5.37
2018-11-11T19:05:22.498Z,5.37
2018-11-11T19:07:50.042Z,6.13
2018-11-11T19:10:20.383Z,5.57
2018-11-11T19:12:49.489Z,9.37
2018-11-11T19:15:18.740Z,6.47
2018-11-11T19:17:46.756Z,6.73
2018-11-11T19:20:16.900Z,8.53
2018-11-11T19:22:44.480Z,9.93
2018-11-11T19:25:13.744Z,6.57
2018-11-11T19:27:42.016Z,9.73
2018-11-11T19:30:10.355Z,7.20
2018-11-11T19:32:38.365Z,6.47
2018-11-11T19:35:05.893Z,7.37
2018-11-11T19:37:33.516Z,4.80
2018-11-11T19:40:00.997Z,4.73
2018-11-11T19:42:28.371Z,6.27
2018-11-11T19:44:55.762Z,4.77
2018-11-11T19:47:23.189Z,6.07
2018-11-11T19:49:50.770Z,6.47
2018-11-11T19:52:18.128Z,4.60
2018-11-11T19:54:45.578Z,6.60
2018-11-11T19:57:12.987Z,6.17
2018-11-11T19:59:40.627Z,6.90
2018-11-11T20:02:08.215Z,5.70
2018-11-11T20:04:35.642Z,5.20
2018-11-11T20:07:03.354Z,5.50
2018-11-11T20:09:30.715Z,6.70
2018-11-11T20:11:58.352Z,6.83
2018-11-11T20:14:25.989Z,8.20
2018-11-11T20:16:53.360Z,7.33
2018-11-11T20:19:20.691Z,7.50
2018-11-11T20:21:48.005Z,5.87
2018-11-11T20:24:15.379Z,6.10
2018-11-11T20:26:42.998Z,6.97
2018-11-11T20:29:10.279Z,6.77
2018-11-11T20:31:37.597Z,7.50
2018-11-11T20:34:05.451Z,11.33
2018-11-11T20:36:33.074Z,7.37
2018-11-11T20:39:00.442Z,6.33
2018-11-11T20:41:28.187Z,7.10
2018-11-11T20:43:55.534Z,6.50
2018-11-11T20:46:22.796Z,8.47
2018-11-11T20:48:50.179Z,7.70
2018-11-11T20:51:17.549Z,8.40
2018-11-11T20:53:45.045Z,7.67
2018-11-11T20:56:12.903Z,7.10
2018-11-11T20:58:41.596Z,7.63
2018-11-11T21:01:09.669Z,7.50
2018-11-11T21:03:37.195Z,6.67
2018-11-11T21:06:05.297Z,9.30
2018-11-11T21:08:32.589Z,8.53
2018-11-11T21:10:59.924Z,7.33
2018-11-11T21:13:28.279Z,6.37
2018-11-11T21:15:55.890Z,8.90
2018-11-11T21:18:24.144Z,7.30
2018-11-11T21:20:51.370Z,6.90
2018-11-11T21:23:18.617Z,8.03
2018-11-11T21:25:45.870Z,7.13
2018-11-11T21:28:14.020Z,7.33
2018-11-11T21:30:41.283Z,7.30
2018-11-11T21:33:08.534Z,7.37
2018-11-11T21:35:35.741Z,6.33
2018-11-11T21:38:03.030Z,6.30
2018-11-11T21:40:30.236Z,5.87
2018-11-11T21:42:57.513Z,5.33
2018-11-11T21:45:25.690Z,8.20
2018-11-11T21:47:52.981Z,5.77
2018-11-11T21:50:21.394Z,7.27
2018-11-11T21:53:27.369Z,5.53
2018-11-11T21:55:54.569Z,6.93
2018-11-11T21:58:21.996Z,6.57
2018-11-11T22:00:59.826Z,5.50
2018-11-11T22:03:27.199Z,6.20
2018-11-11T22:05:54.877Z,5.37
2018-11-11T22:08:22.583Z,6.40
2018-11-11T22:10:50.220Z,6.60
2018-11-11T22:13:17.990Z,8.43
2018-11-11T22:15:45.330Z,6.23
2018-11-11T22:18:12.594Z,5.80
2018-11-11T22:20:39.842Z,6.13
2018-11-11T22:23:07.628Z,6.93
2018-11-11T22:25:35.142Z,8.33
2018-11-11T22:28:02.728Z,7.57
2018-11-11T22:30:30.034Z,7.23
2018-11-11T22:32:57.422Z,5.20
2018-11-11T22:35:24.819Z,6.43
2018-11-11T22:37:52.293Z,7.33
2018-11-11T22:40:19.517Z,8.57
2018-11-11T22:42:46.821Z,6.83
2018-11-11T22:45:14.853Z,7.13
2018-11-11T22:47:42.198Z,7.77
2018-11-11T22:50:12.929Z,6.77
2018-11-11T22:52:40.286Z,6.20
2018-11-11T22:55:08.749Z,7.53
2018-11-11T22:57:36.111Z,6.47
2018-11-11T23:00:06.812Z,7.67
2018-11-11T23:02:34.118Z,9.07
2018-11-11T23:05:01.529Z,5.77
2018-11-11T23:07:28.785Z,6.70
2018-11-11T23:09:56.233Z,6.97
2018-11-11T23:12:23.494Z,6.43
2018-11-11T23:14:50.961Z,6.30
2018-11-11T23:17:18.624Z,6.60
2018-11-11T23:19:45.994Z,7.20
2018-11-11T23:22:13.770Z,5.57
2018-11-11T23:24:41.137Z,6.20
2018-11-11T23:27:08.902Z,6.43
2018-11-11T23:29:36.408Z,5.07
2018-11-11T23:32:03.704Z,5.00
2018-11-11T23:34:31.164Z,7.10
2018-11-11T23:36:58.720Z,5.70
2018-11-11T23:39:26.154Z,6.30
2018-11-11T23:41:53.914Z,6.00
2018-11-11T23:44:21.607Z,5.27
2018-11-11T23:46:49.126Z,5.87
2018-11-11T23:49:16.406Z,6.17
2018-11-11T23:51:43.734Z,5.53
2018-11-11T23:54:11.744Z,5.93
2018-11-11T23:56:39.000Z,5.10
2018-11-11T23:59:06.324Z,5.00
